createdAt,value
2023-01-11T00:01:29.562Z,99444.97
2023-01-11T00:03:58.163Z,99447.53
2023-01-11T00:06:26.866Z,99448.38
2023-01-11T00:08:56.248Z,99439.88
2023-01-11T00:11:24.916Z,99437.34
2023-01-11T00:13:54.911Z,99429.69
2023-01-11T00:16:23.729Z,99427.97
2023-01-11T00:18:52.430Z,99428.88
2023-01-11T00:21:22.276Z,99430.53
2023-01-11T00:23:51.656Z,99425.41
2023-01-11T00:26:20.355Z,99419.41
2023-01-11T00:28:50.033Z,99416.88
2023-01-11T00:31:20.085Z,99417.69
2023-01-11T00:33:48.612Z,99410.84
2023-01-11T00:36:17.246Z,99410.84
2023-01-11T00:38:53.747Z,99406.56
2023-01-11T00:41:42.697Z,99392.97
2023-01-11T00:44:29.886Z,99381.16
2023-01-11T00:47:17.892Z,99370.13
2023-01-11T00:49:46.574Z,99365.03
2023-01-11T00:52:15.288Z,99366.78
2023-01-11T00:54:44.158Z,99353.13
2023-01-11T00:57:12.776Z,99361.56
2023-01-11T00:59:41.509Z,99355.56
2023-01-11T01:02:13.363Z,99343.63
2023-01-11T01:04:42.475Z,99348.72
2023-01-11T01:07:12.056Z,99356.28
2023-01-11T01:09:40.736Z,99340.16
2023-01-11T01:12:10.224Z,99335.88
2023-01-11T01:14:37.950Z,99333.22
2023-01-11T01:17:09.995Z,99337.41
2023-01-11T01:19:40.384Z,99338.22
2023-01-11T01:22:09.214Z,99335.69
2023-01-11T01:24:38.165Z,99333.97
2023-01-11T01:27:06.767Z,99331.41
2023-01-11T01:29:35.375Z,99333.06
2023-01-11T01:32:03.961Z,99339.78
2023-01-11T01:34:37.430Z,99337.22
2023-01-11T01:37:06.184Z,99338.88
2023-01-11T01:39:35.085Z,99338.88
2023-01-11T01:42:04.115Z,99340.50
2023-01-11T01:44:57.964Z,99333.78
2023-01-11T01:47:33.096Z,99343.16
2023-01-11T01:50:09.251Z,99333.78
2023-01-11T01:52:38.307Z,99326.13
2023-01-11T01:55:12.393Z,99326.91
2023-01-11T01:57:46.041Z,99330.31
2023-01-11T02:00:15.610Z,99326.91
2023-01-11T02:02:46.475Z,99330.31
2023-01-11T02:05:18.547Z,99329.41
2023-01-11T02:07:48.483Z,99324.31
2023-01-11T02:10:20.187Z,99327.56
2023-01-11T02:12:53.206Z,99335.22
2023-01-11T02:15:23.860Z,99340.31
2023-01-11T02:17:52.734Z,99334.31
2023-01-11T02:20:59.078Z,99319.00
2023-01-11T02:23:59.126Z,99327.56
2023-01-11T02:26:52.887Z,99315.63
2023-01-11T02:29:35.539Z,99316.47
2023-01-11T02:32:19.991Z,99297.69
2023-01-11T02:34:59.245Z,99302.78
2023-01-11T02:37:37.687Z,99301.06
2023-01-11T02:40:15.134Z,99303.50
2023-01-11T02:43:11.082Z,99297.50
2023-01-11T02:45:51.579Z,99283.94
2023-01-11T02:48:28.596Z,99292.41
2023-01-11T02:51:04.910Z,99287.19
2023-01-11T02:53:38.951Z,99278.72
2023-01-11T02:56:11.242Z,99283.84
2023-01-11T02:58:43.878Z,99280.34
2023-01-11T03:01:14.741Z,99275.97
2023-01-11T03:03:43.382Z,99272.53
2023-01-11T03:06:18.129Z,99271.69
2023-01-11T03:09:19.439Z,99264.97
2023-01-11T03:12:28.927Z,99266.59
2023-01-11T03:15:16.151Z,99249.66
2023-01-11T03:17:55.885Z,99257.22
2023-01-11T03:20:30.356Z,99257.22
2023-01-11T03:23:12.521Z,99264.88
2023-01-11T03:25:56.881Z,99259.66
2023-01-11T03:28:35.182Z,99263.94
2023-01-11T03:31:09.712Z,99258.75
2023-01-11T03:33:49.455Z,99247.63
2023-01-11T03:36:24.641Z,99251.00
2023-01-11T03:38:58.637Z,99245.91
2023-01-11T03:41:33.818Z,99251.81
2023-01-11T03:44:07.597Z,99242.41
2023-01-11T03:46:40.131Z,99248.34
2023-01-11T03:49:16.122Z,99245.69
2023-01-11T03:51:46.807Z,99244.91
2023-01-11T03:54:21.683Z,99247.25
2023-01-11T03:56:58.280Z,99240.59
2023-01-11T03:59:27.551Z,99235.38
2023-01-11T04:01:56.837Z,99226.72
2023-01-11T04:04:27.218Z,99219.88
2023-01-11T04:06:56.195Z,99210.50
2023-01-11T04:09:24.751Z,99211.31
2023-01-11T04:11:53.379Z,99208.75
2023-01-11T04:14:22.139Z,99205.31
2023-01-11T04:16:50.767Z,99219.59
2023-01-11T04:19:19.403Z,99205.19
2023-01-11T04:21:49.337Z,99211.09
2023-01-11T04:24:18.609Z,99215.31
2023-01-11T04:26:47.256Z,99205.94
2023-01-11T04:29:15.923Z,99205.94
2023-01-11T04:31:44.731Z,99202.44
2023-01-11T04:34:13.595Z,99203.28
2023-01-11T04:36:42.580Z,99204.09
2023-01-11T04:39:12.625Z,99195.63
2023-01-11T04:41:58.858Z,99197.22
2023-01-11T04:44:27.532Z,99202.34
2023-01-11T04:46:56.175Z,99197.16
2023-01-11T04:49:24.801Z,99197.16
2023-01-11T04:51:53.569Z,99196.22
2023-01-11T04:54:23.588Z,99191.13
2023-01-11T04:56:52.297Z,99192.75
2023-01-11T04:59:20.928Z,99195.31
2023-01-11T05:01:49.527Z,99188.50
2023-01-11T05:04:18.266Z,99184.19
2023-01-11T05:06:47.449Z,99188.50
2023-01-11T05:09:17.846Z,99191.84
2023-01-11T05:11:47.871Z,99178.19
2023-01-11T05:14:17.330Z,99198.59
2023-01-11T05:16:46.243Z,99190.09
2023-01-11T05:19:15.128Z,99186.75
2023-01-11T05:21:43.770Z,99201.16
2023-01-11T05:24:15.364Z,99187.44
2023-01-11T05:26:48.555Z,99187.56
2023-01-11T05:29:19.237Z,99180.72
2023-01-11T05:31:47.963Z,99188.38
2023-01-11T05:34:17.708Z,99185.72
2023-01-11T05:36:46.605Z,99193.38
2023-01-11T05:39:16.149Z,99184.00
2023-01-11T05:41:45.049Z,99177.25
2023-01-11T05:44:32.366Z,99183.19
2023-01-11T05:47:01.156Z,99179.78
2023-01-11T05:49:29.813Z,99161.94
2023-01-11T05:51:58.525Z,99169.50
2023-01-11T05:54:28.277Z,99160.91
2023-01-11T05:56:58.752Z,99155.00
2023-01-11T05:59:31.874Z,99152.44
2023-01-11T06:02:00.820Z,99144.78
2023-01-11T06:04:29.587Z,99146.44
2023-01-11T06:06:58.313Z,99141.34
2023-01-11T06:09:26.986Z,99148.03
2023-01-11T06:11:55.626Z,99152.34
2023-01-11T06:14:24.244Z,99148.03
2023-01-11T06:16:54.913Z,99137.84
2023-01-11T06:19:23.630Z,99128.47
2023-01-11T06:21:52.339Z,99131.81
2023-01-11T06:24:21.040Z,99128.47
2023-01-11T06:26:49.741Z,99129.28
2023-01-11T06:29:18.641Z,99130.19
2023-01-11T06:31:47.268Z,99125.00
2023-01-11T06:34:17.279Z,99125.81
2023-01-11T06:36:45.903Z,99118.16
2023-01-11T06:39:14.718Z,99111.28
2023-01-11T06:41:43.421Z,99107.84
2023-01-11T06:44:11.998Z,99110.38
2023-01-11T06:46:40.816Z,99108.63
2023-01-11T06:49:09.445Z,99095.88
2023-01-11T06:51:39.514Z,99080.56
2023-01-11T06:54:08.313Z,99094.16
2023-01-11T06:56:37.022Z,99095.81
2023-01-11T06:59:05.718Z,99092.31
2023-01-11T07:01:34.401Z,99092.31
2023-01-11T07:04:03.306Z,99098.13
2023-01-11T07:06:35.651Z,99092.19
2023-01-11T07:09:05.963Z,99087.09
2023-01-11T07:11:39.018Z,99085.38
2023-01-11T07:14:07.653Z,99090.38
2023-01-11T07:16:36.301Z,99090.38
2023-01-11T07:19:04.927Z,99081.91
2023-01-11T07:21:33.766Z,99072.50
2023-01-11T07:24:02.592Z,99069.97
2023-01-11T07:26:33.137Z,99079.25
2023-01-11T07:29:01.832Z,99075.78
2023-01-11T07:31:30.568Z,99078.34
2023-01-11T07:33:59.352Z,99082.50
2023-01-11T07:36:29.976Z,99079.03
2023-01-11T07:38:58.573Z,99081.59
2023-01-11T07:41:44.692Z,99088.34
2023-01-11T07:44:15.103Z,99083.22
2023-01-11T07:46:43.857Z,99080.69
2023-01-11T07:49:12.995Z,99078.00
2023-01-11T07:51:41.810Z,99078.81
2023-01-11T07:54:10.681Z,99079.66
2023-01-11T07:56:39.537Z,99075.34
2023-01-11T07:59:08.430Z,99088.13
2023-01-11T08:01:39.033Z,99089.75
2023-01-11T08:04:11.920Z,99082.09
2023-01-11T08:06:41.132Z,99087.22
2023-01-11T08:09:11.426Z,99077.81
2023-01-11T08:11:57.507Z,99084.53
2023-01-11T08:14:41.281Z,99071.88
2023-01-11T08:17:14.807Z,99074.44
2023-01-11T08:19:44.092Z,99082.91
2023-01-11T08:22:13.298Z,99084.53
2023-01-11T08:24:42.234Z,99076.88
2023-01-11T08:27:11.072Z,99072.59
2023-01-11T08:29:44.065Z,99077.59
2023-01-11T08:32:14.477Z,99078.41
2023-01-11T08:34:43.267Z,99075.88
2023-01-11T08:37:11.886Z,99073.31
2023-01-11T08:39:40.614Z,99074.94
2023-01-11T08:42:09.344Z,99074.94
2023-01-11T08:44:37.941Z,99069.84
2023-01-11T08:47:07.479Z,99071.47
2023-01-11T08:49:37.850Z,99069.84
2023-01-11T08:52:06.640Z,99078.19
2023-01-11T08:54:35.308Z,99068.00
2023-01-11T08:57:03.990Z,99075.66
2023-01-11T08:59:32.654Z,99075.66
2023-01-11T09:02:02.821Z,99074.75
2023-01-11T09:04:32.043Z,99084.94
2023-01-11T09:07:02.512Z,99084.94
2023-01-11T09:09:31.888Z,99078.94
2023-01-11T09:12:05.497Z,99076.38
2023-01-11T09:14:34.801Z,99082.19
2023-01-11T09:17:03.601Z,99077.97
2023-01-11T09:19:33.548Z,99065.22
2023-01-11T09:22:03.605Z,99079.63
2023-01-11T09:24:32.357Z,99086.47
2023-01-11T09:27:01.581Z,99069.41
2023-01-11T09:29:30.343Z,99083.81
2023-01-11T09:31:59.165Z,99081.25
2023-01-11T09:34:27.933Z,99088.81
2023-01-11T09:37:00.057Z,99083.81
2023-01-11T09:39:30.053Z,99076.97
2023-01-11T09:42:32.358Z,99078.72
2023-01-11T09:45:11.199Z,99081.25
2023-01-11T09:47:45.030Z,99087.16
2023-01-11T09:50:19.883Z,99086.25
2023-01-11T09:52:53.259Z,99077.78
2023-01-11T09:55:34.061Z,99090.56
2023-01-11T09:58:31.253Z,99081.25
2023-01-11T10:01:10.944Z,99091.47
2023-01-11T10:04:33.374Z,99088.13
2023-01-11T10:07:23.081Z,99093.22
2023-01-11T10:18:42.768Z,99101.81
2023-01-11T10:22:02.176Z,99079.63
2023-01-11T10:24:39.096Z,99073.59
2023-01-11T10:27:18.195Z,99077.78
2023-01-11T10:30:06.186Z,99074.28
2023-01-11T10:33:03.294Z,99074.28
2023-01-11T10:36:02.867Z,99073.50
2023-01-11T10:38:46.557Z,99077.78
2023-01-11T10:41:26.379Z,99077.69
2023-01-11T10:44:06.313Z,99077.69
2023-01-11T10:46:45.963Z,99084.44
2023-01-11T10:49:40.211Z,99080.13
2023-01-11T10:52:29.038Z,99068.28
2023-01-11T10:55:23.441Z,99076.78
2023-01-11T10:58:04.395Z,99083.50
2023-01-11T11:00:43.368Z,99080.94
2023-01-11T11:03:54.570Z,99086.88
2023-01-11T11:06:39.778Z,99087.78
2023-01-11T11:09:20.985Z,99092.78
2023-01-11T11:11:57.392Z,99091.03
2023-01-11T11:14:34.697Z,99094.31
2023-01-11T11:17:15.186Z,99100.22
2023-01-11T11:19:45.287Z,99102.72
2023-01-11T11:22:14.252Z,99086.44
2023-01-11T11:24:47.798Z,99091.53
2023-01-11T11:27:24.539Z,99087.16
2023-01-11T11:29:55.743Z,99081.22
2023-01-11T11:32:31.833Z,99081.16
2023-01-11T11:35:02.098Z,99077.75
2023-01-11T11:37:35.841Z,99082.75
2023-01-11T11:40:06.672Z,99075.94
2023-01-11T11:42:35.322Z,99073.25
2023-01-11T11:45:17.116Z,99074.91
2023-01-11T11:48:03.456Z,99076.50
2023-01-11T11:50:44.854Z,99066.28
2023-01-11T11:53:28.329Z,99074.69
2023-01-11T11:55:57.254Z,99061.91
2023-01-11T11:58:28.059Z,99055.09
2023-01-11T12:00:56.782Z,99054.97
2023-01-11T12:03:30.235Z,99055.81
2023-01-11T12:06:03.624Z,99053.16
2023-01-11T12:08:35.213Z,99058.25
2023-01-11T12:11:07.603Z,99058.25
2023-01-11T12:13:38.704Z,99071.72
2023-01-11T12:16:20.395Z,99074.28
2023-01-11T12:18:49.360Z,99079.38
2023-01-11T12:21:23.259Z,99085.31
2023-01-11T12:24:13.739Z,99087.78
2023-01-11T12:26:59.529Z,99078.47
2023-01-11T12:29:50.195Z,99081.03
2023-01-11T12:33:01.242Z,99076.75
2023-01-11T12:35:45.202Z,99066.53
2023-01-11T12:38:41.228Z,99069.88
2023-01-11T12:41:43.334Z,99075.81
2023-01-11T12:44:21.460Z,99077.56
2023-01-11T12:47:29.766Z,99071.53
2023-01-11T12:50:05.446Z,99061.31
2023-01-11T12:52:52.594Z,99062.00
2023-01-11T12:55:44.808Z,99058.66
2023-01-11T12:58:19.105Z,99068.75
2023-01-11T13:01:20.150Z,99079.78
2023-01-11T13:04:29.317Z,99095.09
2023-01-11T13:07:11.102Z,99110.44
2023-01-11T13:09:55.478Z,99109.63
2023-01-11T13:12:37.174Z,99102.75
2023-01-11T13:15:25.713Z,99101.06
2023-01-11T13:18:01.466Z,99108.72
2023-01-11T13:20:59.515Z,99102.66
2023-01-11T13:23:40.182Z,99100.22
2023-01-11T13:26:20.999Z,99112.88
2023-01-11T13:28:57.347Z,99102.66
2023-01-11T13:31:27.281Z,99110.44
2023-01-11T13:34:02.389Z,99116.28
2023-01-11T13:36:40.046Z,99122.19
2023-01-11T13:39:17.602Z,99119.63
2023-01-11T13:41:51.027Z,99127.28
2023-01-11T13:44:26.237Z,99125.56
2023-01-11T13:47:05.748Z,99116.16
2023-01-11T13:49:49.632Z,99120.47
2023-01-11T13:52:21.555Z,99126.38
2023-01-11T13:55:00.169Z,99134.03
2023-01-11T13:57:36.658Z,99126.38
2023-01-11T14:00:19.612Z,99120.47
2023-01-11T14:02:54.011Z,99131.50
2023-01-11T14:05:24.678Z,99141.72
2023-01-11T14:08:08.655Z,99161.34
2023-01-11T14:10:48.508Z,99151.94
2023-01-11T14:14:15.502Z,99163.97
2023-01-11T14:17:03.597Z,99158.06
2023-01-11T14:19:39.400Z,99170.84
2023-01-11T14:22:18.931Z,99169.09
2023-01-11T14:24:56.380Z,99171.63
2023-01-11T14:27:56.314Z,99175.13
2023-01-11T14:31:02.955Z,99168.38
2023-01-11T14:34:23.516Z,99182.06
2023-01-11T14:37:34.747Z,99183.81
2023-01-11T14:40:35.483Z,99183.00
2023-01-11T14:43:39.538Z,99190.66
2023-01-11T14:46:34.994Z,99201.81
2023-01-11T14:49:19.137Z,99205.97
2023-01-11T14:51:58.127Z,99199.16
2023-01-11T14:54:30.303Z,99199.97
2023-01-11T14:57:00.406Z,99210.06
2023-01-11T14:59:41.077Z,99222.03
2023-01-11T15:02:27.682Z,99222.03
2023-01-11T15:05:36.036Z,99226.34
2023-01-11T15:08:26.894Z,99248.50
2023-01-11T15:10:59.889Z,99246.84
2023-01-11T15:13:33.604Z,99257.91
2023-01-11T15:16:35.953Z,99256.16
2023-01-11T15:19:09.755Z,99259.63
2023-01-11T15:21:47.755Z,99263.03
2023-01-11T15:24:26.127Z,99274.97
2023-01-11T15:26:56.396Z,99269.84
2023-01-11T15:29:29.928Z,99276.59
2023-01-11T15:32:16.177Z,99277.50
2023-01-11T15:34:47.652Z,99284.38
2023-01-11T15:37:45.860Z,99286.13
2023-01-11T15:40:23.441Z,99282.72
2023-01-11T15:43:37.735Z,99287.94
2023-01-11T15:47:05.546Z,99299.06
2023-01-11T15:50:14.521Z,99300.09
2023-01-11T15:53:34.725Z,99305.31
2023-01-11T15:57:04.112Z,99317.34
2023-01-11T16:00:39.485Z,99315.81
2023-01-11T16:03:50.501Z,99324.38
2023-01-11T16:06:29.122Z,99330.31
2023-01-11T16:09:25.527Z,99333.78
2023-01-11T16:12:08.374Z,99349.91
2023-01-11T16:15:08.565Z,99361.16
2023-01-11T16:17:41.780Z,99362.78
2023-01-11T16:20:28.969Z,99366.25
2023-01-11T16:23:00.581Z,99368.81
2023-01-11T16:25:32.534Z,99374.75
2023-01-11T16:28:02.527Z,99368.81
2023-01-11T16:30:31.502Z,99381.59
2023-01-11T16:33:17.352Z,99394.34
2023-01-11T16:35:46.023Z,99396.91
2023-01-11T16:38:19.274Z,99402.97
2023-01-11T16:40:51.795Z,99402.97
2023-01-11T16:43:24.688Z,99406.44
2023-01-11T16:45:55.367Z,99404.69
2023-01-11T16:48:25.830Z,99411.53
2023-01-11T16:51:02.998Z,99420.00
2023-01-11T16:53:33.907Z,99420.00
2023-01-11T16:56:07.787Z,99426.84
2023-01-11T16:58:37.924Z,99435.44
2023-01-11T17:01:09.978Z,99426.84
2023-01-11T17:03:43.993Z,99426.13
2023-01-11T17:06:19.532Z,99425.41
2023-01-11T17:08:52.264Z,99428.78
2023-01-11T17:11:28.901Z,99431.34
2023-01-11T17:14:36.464Z,99440.84
2023-01-11T17:17:07.736Z,99443.47
2023-01-11T17:19:38.815Z,99450.22
2023-01-11T17:22:14.715Z,99451.13
2023-01-11T17:24:50.026Z,99462.28
2023-01-11T17:27:23.146Z,99468.19
2023-01-11T17:29:55.218Z,99467.38
2023-01-11T17:32:32.579Z,99461.44
2023-01-11T17:35:05.582Z,99459.72
2023-01-11T17:37:35.073Z,99482.72
2023-01-11T17:40:05.744Z,99490.47
2023-01-11T17:42:53.201Z,99489.63
2023-01-11T17:45:24.767Z,99503.31
2023-01-11T17:47:55.698Z,99507.50
2023-01-11T17:50:31.037Z,99506.72
2023-01-11T17:53:06.351Z,99503.31
2023-01-11T17:55:35.922Z,99512.72
2023-01-11T17:58:21.474Z,99508.41
2023-01-11T18:01:18.223Z,99505.88
2023-01-11T18:03:49.161Z,99511.91
2023-01-11T18:06:33.799Z,99518.63
2023-01-11T18:09:05.374Z,99531.50
2023-01-11T18:11:36.528Z,99533.16
2023-01-11T18:14:09.496Z,99536.50
2023-01-11T18:16:38.404Z,99543.28
2023-01-11T18:19:32.426Z,99533.16
2023-01-11T18:22:01.624Z,99529.78
2023-01-11T18:24:39.038Z,99553.59
2023-01-11T18:27:32.399Z,99554.59
2023-01-11T18:30:06.550Z,99558.78
2023-01-11T18:32:44.703Z,99565.63
2023-01-11T18:35:19.171Z,99557.97
2023-01-11T18:37:48.383Z,99551.22
2023-01-11T18:40:19.067Z,99550.38
2023-01-11T18:42:51.202Z,99563.16
2023-01-11T18:45:22.044Z,99564.00
2023-01-11T18:47:50.758Z,99557.25
2023-01-11T18:50:19.896Z,99563.16
2023-01-11T18:52:48.688Z,99556.44
2023-01-11T18:55:17.922Z,99554.78
2023-01-11T18:57:47.458Z,99563.25
2023-01-11T19:00:18.722Z,99563.34
2023-01-11T19:02:48.882Z,99570.09
2023-01-11T19:05:19.814Z,99570.09
2023-01-11T19:07:49.052Z,99555.69
2023-01-11T19:10:20.345Z,99561.69
2023-01-11T19:12:49.513Z,99561.69
2023-01-11T19:15:18.713Z,99559.97
2023-01-11T19:17:49.110Z,99566.81
2023-01-11T19:20:18.030Z,99561.69
2023-01-11T19:22:46.692Z,99567.75
2023-01-11T19:25:15.367Z,99576.31
2023-01-11T19:27:44.236Z,99578.88
2023-01-11T19:30:14.699Z,99589.06
2023-01-11T19:32:43.353Z,99588.25
2023-01-11T19:35:13.401Z,99593.44
2023-01-11T19:37:41.983Z,99590.06
2023-01-11T19:40:12.253Z,99604.59
2023-01-11T19:42:40.883Z,99600.28
2023-01-11T19:45:10.852Z,99607.16
2023-01-11T19:47:40.071Z,99606.31
2023-01-11T19:50:09.725Z,99613.16
2023-01-11T19:52:39.758Z,99608.06
2023-01-11T19:55:09.909Z,99617.41
2023-01-11T19:57:38.548Z,99619.97
2023-01-11T20:00:09.112Z,99623.47
2023-01-11T20:02:41.115Z,99620.06
2023-01-11T20:05:10.490Z,99635.38
2023-01-11T20:07:40.592Z,99610.69
2023-01-11T20:10:10.644Z,99610.78
2023-01-11T20:12:39.250Z,99602.09
2023-01-11T20:15:09.533Z,99610.69
2023-01-11T20:17:38.391Z,99615.81
2023-01-11T20:20:08.242Z,99617.41
2023-01-11T20:22:37.227Z,99613.16
2023-01-11T20:25:08.501Z,99608.94
2023-01-11T20:27:37.134Z,99611.50
2023-01-11T20:30:08.392Z,99618.25
2023-01-11T20:32:41.936Z,99614.88
2023-01-11T20:35:11.782Z,99625.03
2023-01-11T20:37:40.527Z,99625.03
2023-01-11T20:40:14.283Z,99636.94
2023-01-11T20:42:43.393Z,99633.50
2023-01-11T20:45:12.961Z,99636.03
2023-01-11T20:47:41.761Z,99642.91
2023-01-11T20:50:11.541Z,99637.78
2023-01-11T20:52:40.219Z,99638.59
2023-01-11T20:55:11.178Z,99630.94
2023-01-11T20:57:39.817Z,99627.47
2023-01-11T21:02:39.048Z,99611.31
2023-01-11T21:05:09.395Z,99612.16
2023-01-11T21:07:38.022Z,99611.31
2023-01-11T21:10:09.093Z,99605.41
2023-01-11T21:15:10.525Z,99605.50
2023-01-11T21:17:39.291Z,99607.22
2023-01-11T21:20:09.583Z,99613.16
2023-01-11T21:22:38.196Z,99607.22
2023-01-11T21:25:08.669Z,99608.06
2023-01-11T21:27:39.065Z,99601.28
2023-01-11T21:30:09.465Z,99602.94
2023-01-11T21:32:38.145Z,99595.28
2023-01-11T21:35:07.747Z,99597.94
2023-01-11T21:37:36.471Z,99597.09
2023-01-11T21:40:06.269Z,99605.69
2023-01-11T21:42:34.860Z,99608.25
2023-01-11T21:45:05.896Z,99597.28
2023-01-11T21:47:34.542Z,99608.31
2023-01-11T21:50:03.399Z,99598.94
2023-01-11T21:52:32.146Z,99599.84
2023-01-11T21:55:00.733Z,99595.63
2023-01-11T21:57:29.646Z,99593.06
2023-01-11T21:59:58.306Z,99601.59
2023-01-11T22:02:28.369Z,99597.38
2023-01-11T22:04:57.850Z,99600.03
2023-01-11T22:07:27.555Z,99597.47
2023-01-11T22:10:04.444Z,99606.84
2023-01-11T22:12:35.349Z,99603.47
2023-01-11T22:15:04.361Z,99608.59
2023-01-11T22:17:34.473Z,99606.94
2023-01-11T22:20:03.163Z,99606.94
2023-01-11T22:22:31.955Z,99606.94
2023-01-11T22:25:00.846Z,99609.50
2023-01-11T22:27:29.563Z,99620.59
2023-01-11T22:29:58.129Z,99618.16
2023-01-11T22:32:26.756Z,99624.09
2023-01-11T22:34:56.830Z,99617.34
2023-01-11T22:37:25.567Z,99640.31
2023-01-11T22:39:54.230Z,99632.66
2023-01-11T22:42:22.907Z,99631.00
2023-01-11T22:44:53.448Z,99636.13
2023-01-11T22:47:22.193Z,99636.13
2023-01-11T22:49:54.129Z,99634.47
2023-01-11T22:52:24.215Z,99624.25
2023-01-11T22:54:52.795Z,99625.91
2023-01-11T22:57:21.503Z,99617.44
2023-01-11T22:59:50.195Z,99623.34
2023-01-11T23:02:18.844Z,99613.22
2023-01-11T23:04:47.473Z,99600.47
2023-01-11T23:07:16.115Z,99603.81
2023-01-11T23:09:46.126Z,99614.88
2023-01-11T23:12:32.292Z,99631.09
2023-01-11T23:15:01.076Z,99640.50
2023-01-11T23:17:29.745Z,99645.59
2023-01-11T23:19:58.351Z,99645.59
2023-01-11T23:22:27.047Z,99632.84
2023-01-11T23:24:57.046Z,99622.63
2023-01-11T23:27:25.697Z,99618.34
2023-01-11T23:29:54.324Z,99621.00
2023-01-11T23:32:22.989Z,99625.19
2023-01-11T23:34:51.638Z,99618.34
2023-01-11T23:37:20.240Z,99622.63
2023-01-11T23:39:48.881Z,99629.34
2023-01-11T23:42:26.831Z,99621.69
2023-01-11T23:44:55.662Z,99617.53
2023-01-11T23:47:25.384Z,99615.78
2023-01-11T23:49:55.928Z,99603.03
2023-01-11T23:52:27.537Z,99588.50
2023-01-11T23:54:56.598Z,99597.91
2023-01-11T23:57:27.502Z,99597.91
2023-01-11T23:59:56.625Z,99596.19
